WAT4842 KASE-KDEN
Flight info
| Callsign | WAT4842 |
|---|---|
| Flight time | 0h 29m |
| Altitude | 27000 |
| Route | LINDZ1 LINDZ IDENE JNETT SSKII4 |
| Aircraft | C700/M-SBDGHM1RWXY/LB2 |
Departure
| Time | 2026-05-06 00:12 |
|---|---|
| Airport | Aspen-Pitkin County Airport (Sardy Field) (KASE) |
Arrival
| Time | 2026-05-06 00:41 |
|---|---|
| Airport | Denver International Airport (KDEN) |
| Time | Latitude | Longitude | Altitude | Speed | Heading |
|---|---|---|---|---|---|
| 2026-05-06 00:04 | 39.22166 | -106.86582 | 7770 ft | 0 kts | 71° |
| 2026-05-06 00:09 | 39.22159 | -106.86569 | 7770 ft | 4 kts | 156° |
| 2026-05-06 00:09 | 39.22107 | -106.86577 | 7774 ft | 12 kts | 187° |
| 2026-05-06 00:09 | 39.22001 | -106.86591 | 7781 ft | 17 kts | 185° |
| 2026-05-06 00:10 | 39.21879 | -106.86556 | 7790 ft | 19 kts | 160° |
| 2026-05-06 00:10 | 39.21748 | -106.86493 | 7800 ft | 21 kts | 159° |
| 2026-05-06 00:10 | 39.21604 | -106.86423 | 7811 ft | 23 kts | 160° |
| 2026-05-06 00:10 | 39.21449 | -106.86350 | 7823 ft | 25 kts | 160° |
| 2026-05-06 00:11 | 39.21284 | -106.86275 | 7833 ft | 24 kts | 161° |
| 2026-05-06 00:11 | 39.21180 | -106.86310 | 7841 ft | 18 kts | 261° |
| 2026-05-06 00:11 | 39.21263 | -106.86388 | 7833 ft | 33 kts | 340° |
| 2026-05-06 00:11 | 39.21760 | -106.86625 | 7800 ft | 118 kts | 339° |
| 2026-05-06 00:12 | 39.22751 | -106.87103 | 8033 ft | 178 kts | 340° |
| 2026-05-06 00:12 | 39.24137 | -106.87179 | 8827 ft | 221 kts | 1° |
| 2026-05-06 00:12 | 39.25750 | -106.87334 | 9938 ft | 247 kts | 339° |
| 2026-05-06 00:12 | 39.27071 | -106.88806 | 10986 ft | 262 kts | 297° |
| 2026-05-06 00:13 | 39.27534 | -106.91127 | 12311 ft | 275 kts | 274° |
| 2026-05-06 00:13 | 39.27662 | -106.93651 | 13792 ft | 287 kts | 274° |
| 2026-05-06 00:13 | 39.27934 | -106.96241 | 15207 ft | 296 kts | 279° |
| 2026-05-06 00:13 | 39.28416 | -106.98840 | 16673 ft | 301 kts | 285° |
| 2026-05-06 00:14 | 39.29227 | -107.01315 | 18171 ft | 305 kts | 295° |
| 2026-05-06 00:14 | 39.30394 | -107.03626 | 19523 ft | 308 kts | 304° |
| 2026-05-06 00:14 | 39.31828 | -107.05686 | 20887 ft | 307 kts | 309° |
| 2026-05-06 00:14 | 39.33258 | -107.07702 | 22270 ft | 302 kts | 309° |
| 2026-05-06 00:15 | 39.34646 | -107.09710 | 23603 ft | 297 kts | 308° |
| 2026-05-06 00:15 | 39.36024 | -107.11667 | 24745 ft | 292 kts | 312° |
| 2026-05-06 00:15 | 39.37711 | -107.13110 | 25838 ft | 293 kts | 333° |
| 2026-05-06 00:15 | 39.39677 | -107.13791 | 26795 ft | 300 kts | 349° |
| 2026-05-06 00:16 | 39.41872 | -107.13555 | 26864 ft | 338 kts | 12° |
| 2026-05-06 00:16 | 39.44076 | -107.12110 | 26874 ft | 376 kts | 35° |
| 2026-05-06 00:16 | 39.45816 | -107.09382 | 26796 ft | 414 kts | 60° |
| 2026-05-06 00:16 | 39.46655 | -107.05743 | 26805 ft | 444 kts | 83° |
| 2026-05-06 00:17 | 39.46454 | -107.01648 | 26816 ft | 469 kts | 101° |
| 2026-05-06 00:17 | 39.45555 | -106.97487 | 26818 ft | 489 kts | 109° |
| 2026-05-06 00:17 | 39.44391 | -106.93317 | 26809 ft | 495 kts | 111° |
| 2026-05-06 00:17 | 39.43215 | -106.89120 | 26797 ft | 496 kts | 109° |
| 2026-05-06 00:18 | 39.42284 | -106.84816 | 26814 ft | 497 kts | 104° |
| 2026-05-06 00:18 | 39.41567 | -106.80445 | 26818 ft | 496 kts | 101° |
| 2026-05-06 00:18 | 39.40873 | -106.76060 | 26810 ft | 497 kts | 103° |
| 2026-05-06 00:18 | 39.39986 | -106.71739 | 26803 ft | 497 kts | 107° |
| 2026-05-06 00:19 | 39.39024 | -106.67439 | 26794 ft | 498 kts | 106° |
| 2026-05-06 00:19 | 39.38162 | -106.63149 | 26777 ft | 500 kts | 105° |
| 2026-05-06 00:19 | 39.37293 | -106.58808 | 26759 ft | 499 kts | 105° |
| 2026-05-06 00:19 | 39.36447 | -106.54388 | 26723 ft | 501 kts | 104° |
| 2026-05-06 00:20 | 39.35658 | -106.50124 | 26147 ft | 486 kts | 104° |
| 2026-05-06 00:20 | 39.34671 | -106.46038 | 25884 ft | 470 kts | 113° |
| 2026-05-06 00:20 | 39.33460 | -106.42082 | 25694 ft | 474 kts | 112° |
| 2026-05-06 00:20 | 39.32308 | -106.38131 | 25403 ft | 465 kts | 112° |
| 2026-05-06 00:21 | 39.31182 | -106.34243 | 25086 ft | 460 kts | 112° |
| 2026-05-06 00:21 | 39.30029 | -106.30403 | 24753 ft | 458 kts | 113° |
| 2026-05-06 00:21 | 39.28866 | -106.26575 | 24411 ft | 457 kts | 113° |
| 2026-05-06 00:21 | 39.27735 | -106.22764 | 24067 ft | 449 kts | 113° |
| 2026-05-06 00:22 | 39.26650 | -106.19073 | 23722 ft | 431 kts | 112° |
| 2026-05-06 00:22 | 39.25850 | -106.15441 | 23355 ft | 420 kts | 102° |
| 2026-05-06 00:22 | 39.25536 | -106.11710 | 22986 ft | 418 kts | 92° |
| 2026-05-06 00:22 | 39.25700 | -106.07946 | 22645 ft | 422 kts | 82° |
| 2026-05-06 00:23 | 39.26288 | -106.04219 | 22301 ft | 423 kts | 77° |
| 2026-05-06 00:23 | 39.26917 | -106.00517 | 21957 ft | 421 kts | 78° |
| 2026-05-06 00:23 | 39.27529 | -105.96835 | 21617 ft | 418 kts | 77° |
| 2026-05-06 00:23 | 39.28147 | -105.93177 | 21284 ft | 416 kts | 77° |
| 2026-05-06 00:24 | 39.28765 | -105.89543 | 20947 ft | 414 kts | 77° |
| 2026-05-06 00:24 | 39.29375 | -105.85916 | 20625 ft | 413 kts | 78° |
| 2026-05-06 00:24 | 39.29981 | -105.82283 | 20326 ft | 413 kts | 77° |
| 2026-05-06 00:24 | 39.30589 | -105.78656 | 20019 ft | 413 kts | 78° |
| 2026-05-06 00:25 | 39.31197 | -105.75024 | 19736 ft | 412 kts | 78° |
| 2026-05-06 00:25 | 39.31797 | -105.71430 | 19430 ft | 406 kts | 78° |
| 2026-05-06 00:25 | 39.32428 | -105.67916 | 19116 ft | 396 kts | 73° |
| 2026-05-06 00:25 | 39.33471 | -105.64664 | 18797 ft | 389 kts | 63° |
| 2026-05-06 00:26 | 39.34621 | -105.61564 | 18490 ft | 387 kts | 63° |
| 2026-05-06 00:26 | 39.35757 | -105.58408 | 18215 ft | 387 kts | 64° |
| 2026-05-06 00:26 | 39.36898 | -105.55259 | 17869 ft | 387 kts | 63° |
| 2026-05-06 00:26 | 39.38051 | -105.52114 | 17495 ft | 386 kts | 63° |
| 2026-05-06 00:27 | 39.39182 | -105.49014 | 17154 ft | 374 kts | 63° |
| 2026-05-06 00:27 | 39.40260 | -105.46030 | 16831 ft | 358 kts | 63° |
| 2026-05-06 00:27 | 39.41201 | -105.43136 | 16822 ft | 343 kts | 72° |
| 2026-05-06 00:27 | 39.41654 | -105.40086 | 16839 ft | 352 kts | 85° |
| 2026-05-06 00:28 | 39.41702 | -105.36891 | 16854 ft | 358 kts | 91° |
| 2026-05-06 00:28 | 39.41718 | -105.33667 | 16858 ft | 358 kts | 90° |
| 2026-05-06 00:28 | 39.41750 | -105.30434 | 16754 ft | 361 kts | 90° |
| 2026-05-06 00:28 | 39.41768 | -105.27185 | 16454 ft | 361 kts | 90° |
| 2026-05-06 00:29 | 39.41782 | -105.24001 | 16134 ft | 355 kts | 90° |
| 2026-05-06 00:29 | 39.41795 | -105.20827 | 15802 ft | 350 kts | 90° |
| 2026-05-06 00:29 | 39.41812 | -105.17702 | 15479 ft | 346 kts | 90° |
| 2026-05-06 00:29 | 39.41826 | -105.14599 | 15146 ft | 343 kts | 90° |
| 2026-05-06 00:30 | 39.41839 | -105.11529 | 14823 ft | 340 kts | 90° |
| 2026-05-06 00:30 | 39.41851 | -105.08515 | 14499 ft | 330 kts | 90° |
| 2026-05-06 00:30 | 39.41862 | -105.05590 | 14189 ft | 320 kts | 90° |
| 2026-05-06 00:30 | 39.41871 | -105.02743 | 13884 ft | 312 kts | 90° |
| 2026-05-06 00:31 | 39.41881 | -104.99967 | 13566 ft | 304 kts | 90° |
| 2026-05-06 00:31 | 39.41888 | -104.97265 | 13253 ft | 297 kts | 90° |
| 2026-05-06 00:31 | 39.41898 | -104.94630 | 12972 ft | 289 kts | 89° |
| 2026-05-06 00:31 | 39.42087 | -104.92074 | 12694 ft | 283 kts | 83° |
| 2026-05-06 00:32 | 39.42333 | -104.89579 | 12428 ft | 276 kts | 84° |
| 2026-05-06 00:32 | 39.42542 | -104.87169 | 12161 ft | 271 kts | 84° |
| 2026-05-06 00:32 | 39.42745 | -104.84768 | 11890 ft | 266 kts | 84° |
| 2026-05-06 00:32 | 39.42953 | -104.82417 | 11644 ft | 261 kts | 84° |
| 2026-05-06 00:33 | 39.43163 | -104.80102 | 11391 ft | 256 kts | 84° |
| 2026-05-06 00:33 | 39.43362 | -104.77830 | 11139 ft | 253 kts | 85° |
| 2026-05-06 00:33 | 39.43685 | -104.75613 | 10976 ft | 249 kts | 71° |
| 2026-05-06 00:33 | 39.44369 | -104.73579 | 10966 ft | 247 kts | 68° |
| 2026-05-06 00:34 | 39.45051 | -104.71506 | 10965 ft | 253 kts | 62° |
| 2026-05-06 00:34 | 39.46262 | -104.69854 | 10967 ft | 257 kts | 30° |
| 2026-05-06 00:34 | 39.47694 | -104.69067 | 10975 ft | 258 kts | 18° |
| 2026-05-06 00:34 | 39.49402 | -104.68363 | 10978 ft | 258 kts | 17° |
| 2026-05-06 00:35 | 39.51070 | -104.67596 | 10984 ft | 257 kts | 20° |
| 2026-05-06 00:35 | 39.52588 | -104.66841 | 10985 ft | 257 kts | 19° |
| 2026-05-06 00:35 | 39.54337 | -104.66378 | 10852 ft | 260 kts | 0° |
| 2026-05-06 00:35 | 39.56156 | -104.66403 | 10555 ft | 262 kts | 359° |
| 2026-05-06 00:36 | 39.57973 | -104.66368 | 10215 ft | 260 kts | 2° |
| 2026-05-06 00:36 | 39.59780 | -104.66325 | 9868 ft | 259 kts | 2° |
| 2026-05-06 00:36 | 39.61576 | -104.66308 | 9506 ft | 257 kts | 2° |
| 2026-05-06 00:36 | 39.63353 | -104.66293 | 9161 ft | 254 kts | 2° |
| 2026-05-06 00:37 | 39.65109 | -104.66267 | 8828 ft | 251 kts | 2° |
| 2026-05-06 00:37 | 39.66851 | -104.66222 | 8495 ft | 249 kts | 2° |
| 2026-05-06 00:37 | 39.68574 | -104.66221 | 8166 ft | 246 kts | 1° |
| 2026-05-06 00:37 | 39.70256 | -104.66200 | 7847 ft | 243 kts | 3° |
| 2026-05-06 00:38 | 39.71892 | -104.66169 | 7553 ft | 222 kts | 2° |
| 2026-05-06 00:38 | 39.73366 | -104.66174 | 7248 ft | 202 kts | 3° |
| 2026-05-06 00:38 | 39.74717 | -104.66138 | 6995 ft | 188 kts | 3° |
| 2026-05-06 00:38 | 39.75951 | -104.66138 | 6892 ft | 171 kts | 3° |
| 2026-05-06 00:39 | 39.77096 | -104.66116 | 6713 ft | 161 kts | 5° |
| 2026-05-06 00:39 | 39.78242 | -104.66100 | 6482 ft | 168 kts | 2° |
| 2026-05-06 00:39 | 39.79279 | -104.66104 | 6249 ft | 148 kts | 3° |
| 2026-05-06 00:39 | 39.80246 | -104.66076 | 6022 ft | 133 kts | 4° |
| 2026-05-06 00:40 | 39.81173 | -104.66078 | 5816 ft | 133 kts | 0° |
| 2026-05-06 00:40 | 39.82088 | -104.66057 | 5630 ft | 130 kts | 2° |
| 2026-05-06 00:40 | 39.82991 | -104.66056 | 5453 ft | 126 kts | 359° |
| 2026-05-06 00:40 | 39.83735 | -104.66060 | 5417 ft | 89 kts | 360° |
| 2026-05-06 00:41 | 39.84219 | -104.66052 | 5415 ft | 55 kts | 1° |
| 2026-05-06 00:41 | 39.84537 | -104.66043 | 5408 ft | 38 kts | 0° |
| 2026-05-06 00:41 | 39.84768 | -104.66080 | 5401 ft | 29 kts | 346° |
| 2026-05-06 00:41 | 39.84908 | -104.66160 | 5397 ft | 0 kts | 331° |
| 2026-05-06 00:42 | 39.84919 | -104.66186 | 5398 ft | 9 kts | 278° |
| 2026-05-06 00:42 | 39.84851 | -104.66239 | 5403 ft | 17 kts | 183° |
| 2026-05-06 00:42 | 39.84702 | -104.66245 | 5406 ft | 25 kts | 180° |
| 2026-05-06 00:43 | 39.84507 | -104.66248 | 5403 ft | 32 kts | 181° |
| 2026-05-06 00:43 | 39.84250 | -104.66258 | 5413 ft | 41 kts | 181° |
| 2026-05-06 00:43 | 39.84014 | -104.66296 | 5411 ft | 19 kts | 218° |
| 2026-05-06 00:43 | 39.83978 | -104.66459 | 5410 ft | 20 kts | 264° |
| 2026-05-06 00:44 | 39.83973 | -104.66556 | 5408 ft | 0 kts | 271° |